sensor_id;sensor_type;location;lat;lon;timestamp;P1;durP1;ratioP1;P2;durP2;ratioP2
19235;SDS011;9752;54.270;12.470;2022-10-17T00:04:11;12.43;;;8.27;;
19235;SDS011;9752;54.270;12.470;2022-10-17T00:09:13;12.63;;;8.40;;
19235;SDS011;9752;54.270;12.470;2022-10-17T00:14:14;11.27;;;8.90;;
19235;SDS011;9752;54.270;12.470;2022-10-17T00:19:17;16.87;;;10.13;;
19235;SDS011;9752;54.270;12.470;2022-10-17T00:24:19;17.70;;;10.73;;
19235;SDS011;9752;54.270;12.470;2022-10-17T00:29:21;9.57;;;8.67;;
19235;SDS011;9752;54.270;12.470;2022-10-17T00:34:24;11.03;;;9.33;;
19235;SDS011;9752;54.270;12.470;2022-10-17T00:39:26;11.80;;;8.40;;
19235;SDS011;9752;54.270;12.470;2022-10-17T00:50:10;16.23;;;11.13;;
19235;SDS011;9752;54.270;12.470;2022-10-17T00:55:14;10.33;;;8.43;;
19235;SDS011;9752;54.270;12.470;2022-10-17T01:00:20;12.70;;;9.67;;
19235;SDS011;9752;54.270;12.470;2022-10-17T01:05:23;14.37;;;9.50;;
19235;SDS011;9752;54.270;12.470;2022-10-17T01:10:28;16.77;;;7.80;;
19235;SDS011;9752;54.270;12.470;2022-10-17T01:15:36;10.23;;;8.53;;
19235;SDS011;9752;54.270;12.470;2022-10-17T01:26:18;15.07;;;9.60;;
19235;SDS011;9752;54.270;12.470;2022-10-17T01:31:29;11.33;;;8.67;;
19235;SDS011;9752;54.270;12.470;2022-10-17T01:36:38;13.50;;;10.27;;
19235;SDS011;9752;54.270;12.470;2022-10-17T01:41:48;15.70;;;13.33;;
19235;SDS011;9752;54.270;12.470;2022-10-17T01:46:58;28.17;;;15.20;;
19235;SDS011;9752;54.270;12.470;2022-10-17T01:52:04;19.07;;;14.67;;
19235;SDS011;9752;54.270;12.470;2022-10-17T01:57:09;19.13;;;14.17;;
19235;SDS011;9752;54.270;12.470;2022-10-17T02:02:17;16.93;;;13.63;;
19235;SDS011;9752;54.270;12.470;2022-10-17T02:07:20;16.63;;;13.87;;
19235;SDS011;9752;54.270;12.470;2022-10-17T02:17:49;16.27;;;11.73;;
19235;SDS011;9752;54.270;12.470;2022-10-17T02:23:00;14.13;;;11.80;;
19235;SDS011;9752;54.270;12.470;2022-10-17T02:28:12;13.33;;;11.93;;
19235;SDS011;9752;54.270;12.470;2022-10-17T02:33:22;11.93;;;10.77;;
19235;SDS011;9752;54.270;12.470;2022-10-17T02:38:29;15.87;;;12.43;;
19235;SDS011;9752;54.270;12.470;2022-10-17T02:43:33;12.37;;;11.00;;
19235;SDS011;9752;54.270;12.470;2022-10-17T02:48:39;12.20;;;11.00;;
19235;SDS011;9752;54.270;12.470;2022-10-17T02:53:47;12.73;;;11.30;;
19235;SDS011;9752;54.270;12.470;2022-10-17T02:58:56;12.97;;;11.13;;
19235;SDS011;9752;54.270;12.470;2022-10-17T03:04:05;16.30;;;12.60;;
19235;SDS011;9752;54.270;12.470;2022-10-17T03:09:08;24.30;;;13.60;;
19235;SDS011;9752;54.270;12.470;2022-10-17T03:14:10;21.17;;;14.13;;
19235;SDS011;9752;54.270;12.470;2022-10-17T03:19:13;18.47;;;14.90;;
19235;SDS011;9752;54.270;12.470;2022-10-17T03:24:15;21.53;;;14.63;;
19235;SDS011;9752;54.270;12.470;2022-10-17T03:29:17;14.43;;;13.03;;
19235;SDS011;9752;54.270;12.470;2022-10-17T03:34:21;14.87;;;13.10;;
19235;SDS011;9752;54.270;12.470;2022-10-17T03:39:23;15.23;;;11.60;;
19235;SDS011;9752;54.270;12.470;2022-10-17T03:44:25;15.30;;;12.30;;
19235;SDS011;9752;54.270;12.470;2022-10-17T03:49:29;13.23;;;11.93;;
19235;SDS011;9752;54.270;12.470;2022-10-17T03:54:31;14.63;;;12.87;;
19235;SDS011;9752;54.270;12.470;2022-10-17T03:59:33;13.03;;;11.37;;
19235;SDS011;9752;54.270;12.470;2022-10-17T04:04:41;19.23;;;14.27;;
19235;SDS011;9752;54.270;12.470;2022-10-17T04:09:43;19.73;;;12.97;;
19235;SDS011;9752;54.270;12.470;2022-10-17T04:14:49;15.27;;;12.77;;
19235;SDS011;9752;54.270;12.470;2022-10-17T04:19:53;17.80;;;12.90;;
19235;SDS011;9752;54.270;12.470;2022-10-17T04:24:56;22.30;;;14.70;;
19235;SDS011;9752;54.270;12.470;2022-10-17T04:30:07;12.97;;;11.67;;
19235;SDS011;9752;54.270;12.470;2022-10-17T04:35:11;15.20;;;12.70;;
19235;SDS011;9752;54.270;12.470;2022-10-17T04:40:17;14.90;;;12.63;;
19235;SDS011;9752;54.270;12.470;2022-10-17T04:45:19;15.03;;;13.43;;
19235;SDS011;9752;54.270;12.470;2022-10-17T04:50:26;17.57;;;11.23;;
19235;SDS011;9752;54.270;12.470;2022-10-17T04:55:58;12.03;;;10.83;;
19235;SDS011;9752;54.270;12.470;2022-10-17T05:01:03;11.10;;;10.00;;
19235;SDS011;9752;54.270;12.470;2022-10-17T05:06:07;12.30;;;11.10;;
19235;SDS011;9752;54.270;12.470;2022-10-17T05:11:16;12.87;;;10.10;;
19235;SDS011;9752;54.270;12.470;2022-10-17T05:16:19;14.97;;;11.50;;
19235;SDS011;9752;54.270;12.470;2022-10-17T05:21:25;10.00;;;8.87;;
19235;SDS011;9752;54.270;12.470;2022-10-17T05:26:27;13.63;;;10.17;;
19235;SDS011;9752;54.270;12.470;2022-10-17T05:31:29;11.60;;;10.07;;
19235;SDS011;9752;54.270;12.470;2022-10-17T05:36:33;16.70;;;11.40;;
19235;SDS011;9752;54.270;12.470;2022-10-17T05:41:37;17.10;;;11.33;;
19235;SDS011;9752;54.270;12.470;2022-10-17T05:46:39;14.33;;;10.90;;
19235;SDS011;9752;54.270;12.470;2022-10-17T05:51:42;14.70;;;10.37;;
19235;SDS011;9752;54.270;12.470;2022-10-17T05:56:45;9.83;;;8.93;;
19235;SDS011;9752;54.270;12.470;2022-10-17T06:01:51;13.60;;;9.10;;
19235;SDS011;9752;54.270;12.470;2022-10-17T06:06:55;12.93;;;10.23;;
19235;SDS011;9752;54.270;12.470;2022-10-17T06:11:57;10.50;;;8.13;;
19235;SDS011;9752;54.270;12.470;2022-10-17T06:16:59;10.57;;;8.17;;
19235;SDS011;9752;54.270;12.470;2022-10-17T06:22:02;16.23;;;8.60;;
19235;SDS011;9752;54.270;12.470;2022-10-17T06:27:05;10.67;;;8.17;;
19235;SDS011;9752;54.270;12.470;2022-10-17T06:32:07;12.77;;;7.73;;
19235;SDS011;9752;54.270;12.470;2022-10-17T06:37:10;8.97;;;6.67;;
19235;SDS011;9752;54.270;12.470;2022-10-17T06:42:14;12.17;;;6.90;;
19235;SDS011;9752;54.270;12.470;2022-10-17T06:47:39;10.07;;;6.67;;
19235;SDS011;9752;54.270;12.470;2022-10-17T06:53:17;6.97;;;6.30;;
19235;SDS011;9752;54.270;12.470;2022-10-17T06:58:25;6.80;;;5.83;;
19235;SDS011;9752;54.270;12.470;2022-10-17T07:03:46;10.53;;;6.80;;
19235;SDS011;9752;54.270;12.470;2022-10-17T07:08:50;7.27;;;6.53;;
19235;SDS011;9752;54.270;12.470;2022-10-17T07:13:52;9.03;;;6.73;;
19235;SDS011;9752;54.270;12.470;2022-10-17T07:18:55;7.90;;;6.67;;
19235;SDS011;9752;54.270;12.470;2022-10-17T07:23:58;11.03;;;6.53;;
19235;SDS011;9752;54.270;12.470;2022-10-17T07:29:00;6.03;;;5.47;;
19235;SDS011;9752;54.270;12.470;2022-10-17T07:34:08;6.37;;;5.17;;
19235;SDS011;9752;54.270;12.470;2022-10-17T07:39:12;10.27;;;5.00;;
19235;SDS011;9752;54.270;12.470;2022-10-17T07:44:14;4.60;;;4.20;;
19235;SDS011;9752;54.270;12.470;2022-10-17T07:49:19;5.50;;;4.30;;
19235;SDS011;9752;54.270;12.470;2022-10-17T07:54:23;4.47;;;4.07;;
19235;SDS011;9752;54.270;12.470;2022-10-17T07:59:24;3.87;;;3.57;;
19235;SDS011;9752;54.270;12.470;2022-10-17T08:04:26;4.53;;;3.90;;
19235;SDS011;9752;54.270;12.470;2022-10-17T08:09:29;4.00;;;3.60;;
19235;SDS011;9752;54.270;12.470;2022-10-17T08:14:31;3.87;;;3.53;;
19235;SDS011;9752;54.270;12.470;2022-10-17T08:19:33;7.27;;;4.27;;
19235;SDS011;9752;54.270;12.470;2022-10-17T08:24:36;17.83;;;4.50;;
19235;SDS011;9752;54.270;12.470;2022-10-17T08:29:37;6.67;;;4.13;;
19235;SDS011;9752;54.270;12.470;2022-10-17T08:34:39;3.20;;;3.00;;
19235;SDS011;9752;54.270;12.470;2022-10-17T08:39:42;3.50;;;3.20;;
19235;SDS011;9752;54.270;12.470;2022-10-17T08:44:46;3.87;;;3.47;;
19235;SDS011;9752;54.270;12.470;2022-10-17T08:49:57;3.83;;;3.50;;
19235;SDS011;9752;54.270;12.470;2022-10-17T08:55:04;3.87;;;3.57;;
19235;SDS011;9752;54.270;12.470;2022-10-17T09:00:16;4.17;;;3.83;;
19235;SDS011;9752;54.270;12.470;2022-10-17T09:05:27;6.73;;;3.87;;
19235;SDS011;9752;54.270;12.470;2022-10-17T09:10:40;5.90;;;4.20;;
19235;SDS011;9752;54.270;12.470;2022-10-17T09:15:56;3.87;;;3.67;;
19235;SDS011;9752;54.270;12.470;2022-10-17T09:21:11;3.77;;;3.47;;
19235;SDS011;9752;54.270;12.470;2022-10-17T09:26:21;4.63;;;4.17;;
19235;SDS011;9752;54.270;12.470;2022-10-17T09:31:24;4.80;;;4.20;;
19235;SDS011;9752;54.270;12.470;2022-10-17T09:36:31;5.37;;;4.70;;
19235;SDS011;9752;54.270;12.470;2022-10-17T09:41:36;4.73;;;4.43;;
19235;SDS011;9752;54.270;12.470;2022-10-17T09:46:40;4.23;;;3.90;;
19235;SDS011;9752;54.270;12.470;2022-10-17T09:51:47;6.23;;;4.17;;
19235;SDS011;9752;54.270;12.470;2022-10-17T09:56:57;4.93;;;4.57;;
19235;SDS011;9752;54.270;12.470;2022-10-17T10:02:07;6.20;;;4.43;;
19235;SDS011;9752;54.270;12.470;2022-10-17T10:07:14;4.00;;;3.70;;
19235;SDS011;9752;54.270;12.470;2022-10-17T10:12:19;3.63;;;3.40;;
19235;SDS011;9752;54.270;12.470;2022-10-17T10:17:33;3.93;;;3.63;;
19235;SDS011;9752;54.270;12.470;2022-10-17T10:22:37;4.63;;;3.43;;
19235;SDS011;9752;54.270;12.470;2022-10-17T10:27:40;5.10;;;4.23;;
19235;SDS011;9752;54.270;12.470;2022-10-17T10:32:44;5.00;;;4.60;;
19235;SDS011;9752;54.270;12.470;2022-10-17T10:37:48;5.30;;;4.80;;
19235;SDS011;9752;54.270;12.470;2022-10-17T10:42:55;5.37;;;4.80;;
19235;SDS011;9752;54.270;12.470;2022-10-17T10:47:59;5.50;;;5.00;;
19235;SDS011;9752;54.270;12.470;2022-10-17T10:53:06;6.13;;;4.63;;
19235;SDS011;9752;54.270;12.470;2022-10-17T10:58:23;7.17;;;4.20;;
19235;SDS011;9752;54.270;12.470;2022-10-17T11:03:35;4.83;;;4.10;;
19235;SDS011;9752;54.270;12.470;2022-10-17T11:08:42;5.17;;;4.43;;
19235;SDS011;9752;54.270;12.470;2022-10-17T11:13:50;5.43;;;4.93;;
19235;SDS011;9752;54.270;12.470;2022-10-17T11:18:59;5.40;;;4.80;;
19235;SDS011;9752;54.270;12.470;2022-10-17T11:24:09;5.10;;;4.33;;
19235;SDS011;9752;54.270;12.470;2022-10-17T11:29:16;5.40;;;4.60;;
19235;SDS011;9752;54.270;12.470;2022-10-17T11:34:19;5.13;;;4.63;;
19235;SDS011;9752;54.270;12.470;2022-10-17T11:39:26;5.70;;;4.80;;
19235;SDS011;9752;54.270;12.470;2022-10-17T11:44:33;4.93;;;4.53;;
19235;SDS011;9752;54.270;12.470;2022-10-17T11:49:37;4.70;;;4.30;;
19235;SDS011;9752;54.270;12.470;2022-10-17T11:54:47;5.27;;;4.77;;
19235;SDS011;9752;54.270;12.470;2022-10-17T11:59:58;5.33;;;4.83;;
19235;SDS011;9752;54.270;12.470;2022-10-17T12:05:18;5.50;;;4.80;;
19235;SDS011;9752;54.270;12.470;2022-10-17T12:10:29;7.33;;;5.20;;
19235;SDS011;9752;54.270;12.470;2022-10-17T12:15:39;7.37;;;4.43;;
19235;SDS011;9752;54.270;12.470;2022-10-17T12:20:40;4.80;;;4.47;;
19235;SDS011;9752;54.270;12.470;2022-10-17T12:25:47;8.13;;;5.30;;
19235;SDS011;9752;54.270;12.470;2022-10-17T12:30:53;6.27;;;5.50;;
19235;SDS011;9752;54.270;12.470;2022-10-17T12:41:51;7.63;;;5.50;;
19235;SDS011;9752;54.270;12.470;2022-10-17T12:46:59;6.33;;;5.03;;
19235;SDS011;9752;54.270;12.470;2022-10-17T12:58:10;5.93;;;5.23;;
19235;SDS011;9752;54.270;12.470;2022-10-17T13:03:17;7.30;;;5.27;;
19235;SDS011;9752;54.270;12.470;2022-10-17T13:08:23;5.83;;;5.30;;
19235;SDS011;9752;54.270;12.470;2022-10-17T13:13:33;5.90;;;5.43;;
19235;SDS011;9752;54.270;12.470;2022-10-17T13:18:40;7.47;;;5.50;;
19235;SDS011;9752;54.270;12.470;2022-10-17T13:23:42;5.27;;;4.77;;
19235;SDS011;9752;54.270;12.470;2022-10-17T13:28:44;6.57;;;5.90;;
19235;SDS011;9752;54.270;12.470;2022-10-17T13:33:48;6.20;;;5.03;;
19235;SDS011;9752;54.270;12.470;2022-10-17T13:38:56;6.87;;;6.17;;
19235;SDS011;9752;54.270;12.470;2022-10-17T13:44:00;9.50;;;5.77;;
19235;SDS011;9752;54.270;12.470;2022-10-17T13:49:09;7.33;;;5.17;;
19235;SDS011;9752;54.270;12.470;2022-10-17T13:54:16;14.33;;;5.33;;
19235;SDS011;9752;54.270;12.470;2022-10-17T13:59:20;5.23;;;4.83;;
19235;SDS011;9752;54.270;12.470;2022-10-17T14:04:26;7.73;;;5.87;;
19235;SDS011;9752;54.270;12.470;2022-10-17T14:09:28;6.03;;;5.40;;
19235;SDS011;9752;54.270;12.470;2022-10-17T14:14:31;8.20;;;5.67;;
19235;SDS011;9752;54.270;12.470;2022-10-17T14:19:34;5.93;;;5.40;;
19235;SDS011;9752;54.270;12.470;2022-10-17T14:24:38;6.57;;;5.30;;
19235;SDS011;9752;54.270;12.470;2022-10-17T14:29:48;8.30;;;5.53;;
19235;SDS011;9752;54.270;12.470;2022-10-17T14:34:53;6.00;;;5.30;;
19235;SDS011;9752;54.270;12.470;2022-10-17T14:39:57;8.20;;;5.70;;
19235;SDS011;9752;54.270;12.470;2022-10-17T14:45:02;9.37;;;6.50;;
19235;SDS011;9752;54.270;12.470;2022-10-17T14:50:27;12.43;;;6.90;;
19235;SDS011;9752;54.270;12.470;2022-10-17T14:55:31;8.90;;;6.17;;
19235;SDS011;9752;54.270;12.470;2022-10-17T15:00:34;13.10;;;7.37;;
19235;SDS011;9752;54.270;12.470;2022-10-17T15:05:37;9.07;;;6.93;;
19235;SDS011;9752;54.270;12.470;2022-10-17T15:10:39;9.67;;;7.23;;
19235;SDS011;9752;54.270;12.470;2022-10-17T15:15:41;9.87;;;6.43;;
19235;SDS011;9752;54.270;12.470;2022-10-17T15:20:45;8.40;;;7.03;;
19235;SDS011;9752;54.270;12.470;2022-10-17T15:25:47;7.03;;;6.33;;
19235;SDS011;9752;54.270;12.470;2022-10-17T15:30:48;11.20;;;6.13;;
19235;SDS011;9752;54.270;12.470;2022-10-17T15:35:51;6.17;;;5.57;;
19235;SDS011;9752;54.270;12.470;2022-10-17T15:40:53;8.53;;;6.33;;
19235;SDS011;9752;54.270;12.470;2022-10-17T15:45:55;10.73;;;7.20;;
19235;SDS011;9752;54.270;12.470;2022-10-17T15:50:58;9.20;;;6.13;;
19235;SDS011;9752;54.270;12.470;2022-10-17T15:56:00;7.47;;;6.77;;
19235;SDS011;9752;54.270;12.470;2022-10-17T16:01:03;7.37;;;6.67;;
19235;SDS011;9752;54.270;12.470;2022-10-17T16:06:08;8.73;;;7.83;;
19235;SDS011;9752;54.270;12.470;2022-10-17T16:11:11;9.03;;;6.97;;
19235;SDS011;9752;54.270;12.470;2022-10-17T16:16:18;8.43;;;7.43;;
19235;SDS011;9752;54.270;12.470;2022-10-17T16:21:23;12.00;;;8.73;;
19235;SDS011;9752;54.270;12.470;2022-10-17T16:26:26;14.03;;;10.47;;
19235;SDS011;9752;54.270;12.470;2022-10-17T16:31:29;12.30;;;10.00;;
19235;SDS011;9752;54.270;12.470;2022-10-17T16:36:34;12.30;;;10.13;;
19235;SDS011;9752;54.270;12.470;2022-10-17T16:41:36;15.20;;;10.10;;
19235;SDS011;9752;54.270;12.470;2022-10-17T16:46:39;10.63;;;9.07;;
19235;SDS011;9752;54.270;12.470;2022-10-17T16:51:42;12.80;;;9.83;;
19235;SDS011;9752;54.270;12.470;2022-10-17T16:56:44;13.37;;;10.47;;
19235;SDS011;9752;54.270;12.470;2022-10-17T17:01:45;14.63;;;10.77;;
19235;SDS011;9752;54.270;12.470;2022-10-17T17:06:48;15.47;;;11.63;;
19235;SDS011;9752;54.270;12.470;2022-10-17T17:11:50;13.07;;;11.40;;
19235;SDS011;9752;54.270;12.470;2022-10-17T17:16:52;14.07;;;11.30;;
19235;SDS011;9752;54.270;12.470;2022-10-17T17:21:55;12.63;;;11.20;;
19235;SDS011;9752;54.270;12.470;2022-10-17T17:26:56;13.10;;;10.70;;
19235;SDS011;9752;54.270;12.470;2022-10-17T17:31:58;16.30;;;12.20;;
19235;SDS011;9752;54.270;12.470;2022-10-17T17:37:01;12.50;;;11.20;;
19235;SDS011;9752;54.270;12.470;2022-10-17T17:42:03;12.83;;;11.07;;
19235;SDS011;9752;54.270;12.470;2022-10-17T17:47:05;14.03;;;12.33;;
19235;SDS011;9752;54.270;12.470;2022-10-17T17:52:08;15.97;;;12.73;;
19235;SDS011;9752;54.270;12.470;2022-10-17T17:57:09;16.37;;;12.63;;
19235;SDS011;9752;54.270;12.470;2022-10-17T18:02:11;15.57;;;13.37;;
19235;SDS011;9752;54.270;12.470;2022-10-17T18:07:14;15.03;;;12.10;;
19235;SDS011;9752;54.270;12.470;2022-10-17T18:12:16;13.50;;;12.13;;
19235;SDS011;9752;54.270;12.470;2022-10-17T18:17:18;13.43;;;11.97;;
19235;SDS011;9752;54.270;12.470;2022-10-17T18:22:21;11.63;;;10.47;;
19235;SDS011;9752;54.270;12.470;2022-10-17T18:27:23;11.03;;;9.93;;
19235;SDS011;9752;54.270;12.470;2022-10-17T18:32:24;10.77;;;9.70;;
19235;SDS011;9752;54.270;12.470;2022-10-17T18:37:27;10.30;;;8.60;;
19235;SDS011;9752;54.270;12.470;2022-10-17T18:42:29;14.00;;;9.50;;
19235;SDS011;9752;54.270;12.470;2022-10-17T18:47:31;13.03;;;9.00;;
19235;SDS011;9752;54.270;12.470;2022-10-17T18:52:34;10.53;;;8.40;;
19235;SDS011;9752;54.270;12.470;2022-10-17T18:57:35;10.70;;;8.30;;
19235;SDS011;9752;54.270;12.470;2022-10-17T19:02:37;7.47;;;6.47;;
19235;SDS011;9752;54.270;12.470;2022-10-17T19:07:43;10.87;;;7.67;;
19235;SDS011;9752;54.270;12.470;2022-10-17T19:12:45;9.40;;;6.73;;
19235;SDS011;9752;54.270;12.470;2022-10-17T19:17:47;7.23;;;6.33;;
19235;SDS011;9752;54.270;12.470;2022-10-17T19:22:50;8.27;;;6.47;;
19235;SDS011;9752;54.270;12.470;2022-10-17T19:27:51;9.70;;;6.40;;
19235;SDS011;9752;54.270;12.470;2022-10-17T19:32:53;12.17;;;6.70;;
19235;SDS011;9752;54.270;12.470;2022-10-17T19:37:56;8.57;;;6.90;;
19235;SDS011;9752;54.270;12.470;2022-10-17T19:42:58;9.40;;;7.40;;
19235;SDS011;9752;54.270;12.470;2022-10-17T19:47:59;9.87;;;8.90;;
19235;SDS011;9752;54.270;12.470;2022-10-17T19:53:02;16.70;;;10.50;;
19235;SDS011;9752;54.270;12.470;2022-10-17T19:58:04;12.37;;;9.37;;
19235;SDS011;9752;54.270;12.470;2022-10-17T20:03:06;11.63;;;10.37;;
19235;SDS011;9752;54.270;12.470;2022-10-17T20:08:09;13.50;;;10.53;;
19235;SDS011;9752;54.270;12.470;2022-10-17T20:13:10;11.90;;;10.63;;
19235;SDS011;9752;54.270;12.470;2022-10-17T20:18:12;13.40;;;10.70;;
19235;SDS011;9752;54.270;12.470;2022-10-17T20:23:15;15.87;;;11.23;;
19235;SDS011;9752;54.270;12.470;2022-10-17T20:28:17;11.00;;;9.57;;
19235;SDS011;9752;54.270;12.470;2022-10-17T20:33:19;10.73;;;8.67;;
19235;SDS011;9752;54.270;12.470;2022-10-17T20:38:22;9.17;;;7.10;;
19235;SDS011;9752;54.270;12.470;2022-10-17T20:43:23;5.77;;;4.60;;
19235;SDS011;9752;54.270;12.470;2022-10-17T20:48:25;5.23;;;4.60;;
19235;SDS011;9752;54.270;12.470;2022-10-17T20:53:29;6.60;;;3.43;;
19235;SDS011;9752;54.270;12.470;2022-10-17T20:58:30;3.13;;;2.90;;
19235;SDS011;9752;54.270;12.470;2022-10-17T21:03:33;3.60;;;2.93;;
19235;SDS011;9752;54.270;12.470;2022-10-17T21:08:37;3.50;;;3.20;;
19235;SDS011;9752;54.270;12.470;2022-10-17T21:13:39;4.73;;;3.47;;
19235;SDS011;9752;54.270;12.470;2022-10-17T21:18:41;4.53;;;3.80;;
19235;SDS011;9752;54.270;12.470;2022-10-17T21:23:46;7.07;;;4.73;;
19235;SDS011;9752;54.270;12.470;2022-10-17T21:28:48;8.50;;;6.33;;
19235;SDS011;9752;54.270;12.470;2022-10-17T21:33:52;10.30;;;7.83;;
19235;SDS011;9752;54.270;12.470;2022-10-17T21:38:57;10.87;;;8.77;;
19235;SDS011;9752;54.270;12.470;2022-10-17T21:43:59;14.73;;;9.27;;
19235;SDS011;9752;54.270;12.470;2022-10-17T21:49:02;9.33;;;6.87;;
19235;SDS011;9752;54.270;12.470;2022-10-17T21:54:05;8.73;;;7.80;;
19235;SDS011;9752;54.270;12.470;2022-10-17T21:59:07;8.43;;;6.20;;
19235;SDS011;9752;54.270;12.470;2022-10-17T22:04:09;6.17;;;5.57;;
19235;SDS011;9752;54.270;12.470;2022-10-17T22:09:15;7.13;;;5.47;;
19235;SDS011;9752;54.270;12.470;2022-10-17T22:14:18;6.13;;;4.67;;
19235;SDS011;9752;54.270;12.470;2022-10-17T22:19:23;4.97;;;4.30;;
19235;SDS011;9752;54.270;12.470;2022-10-17T22:24:27;6.57;;;4.37;;
19235;SDS011;9752;54.270;12.470;2022-10-17T22:29:29;6.37;;;4.20;;
19235;SDS011;9752;54.270;12.470;2022-10-17T22:34:31;4.73;;;4.23;;
19235;SDS011;9752;54.270;12.470;2022-10-17T22:39:34;4.40;;;4.00;;
19235;SDS011;9752;54.270;12.470;2022-10-17T22:44:35;5.87;;;4.13;;
19235;SDS011;9752;54.270;12.470;2022-10-17T22:49:37;4.23;;;3.70;;
19235;SDS011;9752;54.270;12.470;2022-10-17T22:54:40;4.00;;;3.50;;
19235;SDS011;9752;54.270;12.470;2022-10-17T22:59:41;5.60;;;3.60;;
19235;SDS011;9752;54.270;12.470;2022-10-17T23:04:43;7.43;;;4.30;;
19235;SDS011;9752;54.270;12.470;2022-10-17T23:09:46;8.40;;;3.80;;
19235;SDS011;9752;54.270;12.470;2022-10-17T23:14:48;4.67;;;3.87;;
19235;SDS011;9752;54.270;12.470;2022-10-17T23:19:50;5.70;;;3.60;;
19235;SDS011;9752;54.270;12.470;2022-10-17T23:24:53;5.27;;;4.10;;
19235;SDS011;9752;54.270;12.470;2022-10-17T23:29:54;11.70;;;4.60;;
19235;SDS011;9752;54.270;12.470;2022-10-17T23:34:56;7.00;;;4.40;;
19235;SDS011;9752;54.270;12.470;2022-10-17T23:39:59;6.77;;;4.20;;
19235;SDS011;9752;54.270;12.470;2022-10-17T23:45:01;8.93;;;4.60;;
19235;SDS011;9752;54.270;12.470;2022-10-17T23:50:03;7.17;;;4.07;;
19235;SDS011;9752;54.270;12.470;2022-10-17T23:55:08;7.20;;;4.10;;
